createdAt,value
2019-05-10T00:01:44.449Z,5.33
2019-05-10T00:04:31.304Z,5.60
2019-05-10T00:07:18.234Z,5.50
2019-05-10T00:09:46.573Z,5.47
2019-05-10T00:12:17.267Z,4.83
2019-05-10T00:14:47.865Z,5.20
2019-05-10T00:17:18.315Z,5.12
2019-05-10T00:19:47.291Z,5.20
2019-05-10T00:22:16.393Z,5.53
2019-05-10T00:25:00.859Z,5.37
2019-05-10T00:27:16.334Z,5.08
2019-05-10T00:29:45.468Z,5.35
2019-05-10T00:32:14.857Z,4.97
2019-05-10T00:34:43.819Z,5.28
2019-05-10T00:37:12.939Z,5.17
2019-05-10T00:39:42.166Z,4.80
2019-05-10T00:42:11.154Z,5.20
2019-05-10T00:44:40.173Z,5.60
2019-05-10T00:47:09.154Z,4.90
2019-05-10T00:49:38.110Z,5.15
2019-05-10T00:52:07.244Z,6.12
2019-05-10T00:54:36.185Z,5.47
2019-05-10T00:57:05.224Z,6.42
2019-05-10T00:59:34.279Z,5.90
2019-05-10T01:02:03.318Z,5.80
2019-05-10T01:04:32.455Z,6.15
2019-05-10T01:07:01.421Z,6.20
2019-05-10T01:09:30.373Z,5.65
2019-05-10T01:11:59.363Z,5.90
2019-05-10T01:14:28.322Z,5.78
2019-05-10T01:16:57.376Z,5.78
2019-05-10T01:19:26.409Z,5.92
2019-05-10T01:21:55.416Z,5.50
2019-05-10T01:24:24.380Z,6.03
2019-05-10T01:26:53.324Z,6.45
2019-05-10T01:29:22.299Z,5.83
2019-05-10T01:31:51.259Z,6.50
2019-05-10T01:34:20.263Z,5.75
2019-05-10T01:36:49.301Z,6.17
2019-05-10T01:39:18.253Z,5.42
2019-05-10T01:41:47.230Z,5.78
2019-05-10T01:44:16.186Z,6.10
2019-05-10T01:46:45.559Z,6.40
2019-05-10T01:49:14.796Z,6.25
2019-05-10T01:51:43.759Z,6.22
2019-05-10T01:54:12.783Z,6.65
2019-05-10T01:56:41.747Z,6.25
2019-05-10T01:59:10.741Z,7.35
2019-05-10T02:01:40.050Z,7.35
2019-05-10T02:04:09.006Z,7.78
2019-05-10T02:06:37.980Z,6.95
2019-05-10T02:09:07.790Z,8.03
2019-05-10T02:11:36.870Z,7.47
2019-05-10T02:14:06.036Z,8.05
2019-05-10T02:16:34.999Z,8.43
2019-05-10T02:19:04.104Z,8.25
2019-05-10T02:21:33.067Z,8.63
2019-05-10T02:24:02.080Z,8.40
2019-05-10T02:26:31.095Z,8.78
2019-05-10T02:29:00.045Z,8.63
2019-05-10T02:31:29.026Z,8.88
2019-05-10T02:33:57.973Z,9.23
2019-05-10T02:36:26.968Z,9.23
2019-05-10T02:38:55.937Z,9.25
2019-05-10T02:41:24.899Z,9.38
2019-05-10T02:43:53.881Z,9.63
2019-05-10T02:46:22.911Z,9.00
2019-05-10T02:48:51.905Z,9.28
2019-05-10T02:51:20.864Z,9.97
2019-05-10T02:53:49.823Z,10.30
2019-05-10T02:56:30.402Z,10.00
2019-05-10T02:58:52.811Z,10.85
2019-05-10T03:01:25.399Z,10.72
2019-05-10T03:03:56.423Z,10.80
2019-05-10T03:06:28.389Z,11.00
2019-05-10T03:08:57.622Z,11.53
2019-05-10T03:11:29.932Z,12.07
2019-05-10T03:14:02.076Z,12.30
2019-05-10T03:16:34.176Z,12.63
2019-05-10T03:19:04.304Z,13.08
2019-05-10T03:21:36.353Z,13.80
2019-05-10T03:24:05.356Z,15.53
2019-05-10T03:26:50.478Z,14.80
2019-05-10T03:29:06.178Z,14.70
2019-05-10T03:31:35.599Z,14.98
2019-05-10T03:34:04.716Z,15.53
2019-05-10T03:36:34.033Z,15.15
2019-05-10T03:39:03.413Z,14.28
2019-05-10T03:41:32.766Z,14.75
2019-05-10T03:44:02.075Z,15.45
2019-05-10T03:46:31.097Z,14.65
2019-05-10T03:49:00.129Z,12.82
2019-05-10T03:51:29.170Z,12.43
2019-05-10T03:53:58.209Z,12.53
2019-05-10T03:56:29.840Z,13.88
2019-05-10T03:58:57.918Z,14.58
2019-05-10T04:01:26.982Z,15.05
2019-05-10T04:03:56.118Z,14.65
2019-05-10T04:06:25.088Z,15.40
2019-05-10T04:08:54.788Z,15.38
2019-05-10T04:11:23.743Z,16.03
2019-05-10T04:13:52.702Z,16.37
2019-05-10T04:16:21.756Z,17.53
2019-05-10T04:18:50.745Z,17.10
2019-05-10T04:21:19.789Z,16.15
2019-05-10T04:23:48.755Z,15.55
2019-05-10T04:26:17.801Z,16.13
2019-05-10T04:28:46.852Z,15.43
2019-05-10T04:31:15.899Z,15.83
2019-05-10T04:33:44.972Z,15.83
2019-05-10T04:36:14.208Z,15.60
2019-05-10T04:38:43.246Z,16.07
2019-05-10T04:41:12.312Z,16.20
2019-05-10T04:43:41.360Z,16.23
2019-05-10T04:46:10.463Z,16.50
2019-05-10T04:48:39.499Z,15.15
2019-05-10T04:51:08.543Z,14.35
2019-05-10T04:53:37.593Z,14.05
2019-05-10T04:56:06.569Z,14.18
2019-05-10T04:58:35.638Z,13.62
2019-05-10T05:01:04.669Z,13.80
2019-05-10T05:03:33.705Z,15.53
2019-05-10T05:06:02.720Z,16.70
2019-05-10T05:08:31.755Z,17.27
2019-05-10T05:11:02.013Z,17.92
2019-05-10T05:13:31.013Z,17.35
2019-05-10T05:16:00.043Z,17.40
2019-05-10T05:18:29.195Z,15.00
2019-05-10T05:20:58.258Z,16.05
2019-05-10T05:23:27.335Z,14.75
2019-05-10T05:25:56.364Z,14.83
2019-05-10T05:28:25.420Z,13.83
2019-05-10T05:30:54.495Z,11.60
2019-05-10T05:33:23.901Z,12.15
2019-05-10T05:35:53.309Z,10.82
2019-05-10T05:38:22.293Z,11.33
2019-05-10T05:40:51.615Z,10.35
2019-05-10T05:43:20.588Z,9.60
2019-05-10T05:45:49.554Z,9.10
2019-05-10T05:48:21.384Z,8.90
2019-05-10T05:50:49.274Z,8.25
2019-05-10T05:53:22.098Z,8.55
2019-05-10T05:55:48.912Z,9.93
2019-05-10T05:58:26.573Z,9.80
2019-05-10T06:00:48.587Z,10.68
2019-05-10T06:03:27.452Z,10.82
2019-05-10T06:05:48.294Z,10.90
2019-05-10T06:08:23.565Z,11.15
2019-05-10T06:10:56.085Z,10.80
2019-05-10T06:13:23.547Z,10.23
2019-05-10T06:15:49.303Z,11.30
2019-05-10T06:18:18.718Z,11.20
2019-05-10T06:20:47.772Z,11.95
2019-05-10T06:23:16.798Z,11.40
2019-05-10T06:25:45.801Z,12.25
2019-05-10T06:28:26.247Z,11.78
2019-05-10T06:30:45.960Z,11.03
2019-05-10T06:33:15.065Z,11.35
2019-05-10T06:35:44.137Z,12.85
2019-05-10T06:38:14.654Z,11.78
2019-05-10T06:40:47.389Z,11.78
2019-05-10T06:43:15.600Z,11.90
2019-05-10T06:45:46.677Z,12.45
2019-05-10T06:48:26.123Z,15.60
2019-05-10T06:50:46.353Z,16.57
2019-05-10T06:53:15.387Z,15.78
2019-05-10T06:55:44.525Z,17.57
2019-05-10T06:58:13.491Z,17.60
2019-05-10T07:00:45.080Z,17.17
2019-05-10T07:03:13.218Z,17.65
2019-05-10T07:05:42.207Z,19.27
2019-05-10T07:08:19.561Z,19.55
2019-05-10T07:10:42.366Z,20.35
2019-05-10T07:13:11.387Z,21.55
2019-05-10T07:15:42.283Z,23.10
2019-05-10T07:18:11.358Z,21.52
2019-05-10T07:20:43.198Z,22.02
2019-05-10T07:23:10.984Z,21.85
2019-05-10T07:25:43.731Z,21.20
2019-05-10T07:28:15.979Z,21.60
2019-05-10T07:30:41.969Z,20.75
2019-05-10T07:33:11.182Z,20.62
2019-05-10T07:35:40.241Z,20.82
2019-05-10T07:38:09.701Z,21.27
2019-05-10T07:40:38.726Z,22.07
2019-05-10T07:43:07.820Z,20.45
2019-05-10T07:45:36.781Z,23.02
2019-05-10T07:48:08.402Z,22.05
2019-05-10T07:50:42.640Z,23.47
2019-05-10T07:53:07.962Z,22.27
2019-05-10T07:55:37.363Z,22.87
2019-05-10T07:58:07.116Z,21.97
2019-05-10T08:00:38.049Z,23.40
2019-05-10T08:03:15.789Z,13.30
2019-05-10T08:05:39.106Z,7.78
2019-05-10T08:08:09.565Z,5.70
2019-05-10T08:10:39.381Z,7.72
2019-05-10T08:13:08.748Z,8.98
2019-05-10T08:15:38.525Z,19.48
2019-05-10T08:18:09.828Z,19.73
2019-05-10T08:20:49.633Z,18.50
2019-05-10T08:23:09.604Z,19.45
2019-05-10T08:25:43.981Z,18.35
2019-05-10T08:28:12.532Z,18.62
2019-05-10T08:30:52.036Z,18.95
2019-05-10T08:33:14.875Z,15.25
2019-05-10T08:35:46.506Z,8.48
2019-05-10T08:38:14.783Z,8.33
2019-05-10T08:40:43.746Z,7.78
2019-05-10T08:43:16.705Z,7.62
2019-05-10T08:45:49.053Z,7.28
2019-05-10T08:48:14.469Z,7.58
2019-05-10T08:50:50.792Z,6.70
2019-05-10T08:53:16.459Z,7.20
2019-05-10T08:55:44.868Z,7.92
2019-05-10T08:58:13.865Z,9.78
2019-05-10T09:00:53.786Z,7.72
2019-05-10T09:03:18.273Z,6.22
2019-05-10T09:05:44.408Z,8.20
2019-05-10T09:08:19.729Z,7.80
2019-05-10T09:10:44.093Z,4.95
2019-05-10T09:13:13.677Z,2.90
2019-05-10T09:15:51.471Z,2.58
2019-05-10T09:18:13.727Z,3.08
2019-05-10T09:20:42.755Z,2.80
2019-05-10T09:23:15.252Z,2.70
2019-05-10T09:25:42.803Z,3.02
2019-05-10T09:28:16.928Z,2.90
2019-05-10T09:30:56.823Z,2.80
2019-05-10T09:33:14.661Z,2.70
2019-05-10T09:35:47.532Z,2.50
2019-05-10T09:38:14.480Z,2.92
2019-05-10T09:40:51.299Z,3.30
2019-05-10T09:43:14.971Z,3.22
2019-05-10T09:45:44.215Z,2.80
2019-05-10T09:48:13.256Z,2.55
2019-05-10T09:50:46.928Z,2.20
2019-05-10T09:53:16.296Z,1.92
2019-05-10T09:55:45.519Z,1.87
2019-05-10T09:58:14.374Z,1.92
2019-05-10T10:00:43.335Z,1.80
2019-05-10T10:03:13.099Z,2.45
2019-05-10T10:05:42.334Z,2.70
2019-05-10T10:08:11.393Z,2.37
2019-05-10T10:10:40.628Z,2.55
2019-05-10T10:13:13.382Z,3.00
2019-05-10T10:15:40.675Z,3.05
2019-05-10T10:18:12.522Z,3.35
2019-05-10T10:20:45.027Z,2.90
2019-05-10T10:23:11.501Z,2.85
2019-05-10T10:25:42.127Z,2.90
2019-05-10T10:28:17.242Z,3.47
2019-05-10T10:30:41.838Z,3.37
2019-05-10T10:33:13.754Z,3.20
2019-05-10T10:35:41.563Z,3.58
2019-05-10T10:38:10.625Z,3.45
2019-05-10T10:40:44.761Z,3.92
2019-05-10T10:43:10.345Z,4.10
2019-05-10T10:45:39.386Z,4.15
2019-05-10T10:48:12.650Z,4.37
2019-05-10T10:50:44.503Z,5.03
2019-05-10T10:53:10.113Z,5.12
2019-05-10T10:55:40.261Z,5.85
2019-05-10T10:58:09.508Z,6.05
2019-05-10T11:00:39.243Z,6.55
2019-05-10T11:03:08.489Z,7.40
2019-05-10T11:05:37.454Z,7.65
2019-05-10T11:08:06.529Z,8.68
2019-05-10T11:10:35.503Z,9.38
2019-05-10T11:13:10.995Z,9.10
2019-05-10T11:15:36.622Z,9.85
2019-05-10T11:18:05.838Z,10.68
2019-05-10T11:20:34.812Z,11.30
2019-05-10T11:23:03.935Z,9.85
2019-05-10T11:25:32.978Z,10.05
2019-05-10T11:28:02.094Z,10.53
2019-05-10T11:30:32.527Z,11.33
2019-05-10T11:33:01.933Z,9.15
2019-05-10T11:35:34.324Z,10.13
2019-05-10T11:38:06.763Z,10.40
2019-05-10T11:40:35.141Z,9.40
2019-05-10T11:43:03.648Z,10.28
2019-05-10T11:45:35.301Z,9.43
2019-05-10T11:48:03.363Z,9.20
2019-05-10T11:50:35.309Z,9.50
2019-05-10T11:53:07.016Z,8.98
2019-05-10T11:55:37.823Z,9.55
2019-05-10T11:58:08.889Z,9.65
2019-05-10T12:00:36.635Z,8.58
2019-05-10T12:03:11.363Z,8.50
2019-05-10T12:05:36.439Z,7.25
2019-05-10T12:08:05.474Z,7.97
2019-05-10T12:10:34.440Z,7.85
2019-05-10T12:13:14.903Z,8.30
2019-05-10T12:15:34.152Z,7.10
2019-05-10T12:18:04.718Z,6.28
2019-05-10T12:23:05.312Z,6.70
2019-05-10T12:26:16.312Z,6.15
2019-05-10T12:26:20.050Z,9.23
2019-05-10T12:28:05.326Z,9.70
2019-05-10T12:30:34.857Z,9.00
2019-05-10T12:33:09.500Z,8.80
2019-05-10T12:35:40.701Z,8.53
2019-05-10T12:38:06.432Z,9.00
2019-05-10T12:40:35.476Z,8.73
2019-05-10T12:43:04.552Z,7.85
2019-05-10T12:45:33.576Z,7.30
2019-05-10T12:48:02.591Z,7.40
2019-05-10T12:50:31.634Z,8.33
2019-05-10T12:53:07.092Z,8.15
2019-05-10T12:55:31.301Z,8.23
2019-05-10T12:58:00.327Z,10.23
2019-05-10T13:00:29.396Z,9.10
2019-05-10T13:03:11.531Z,10.28
2019-05-10T13:05:31.985Z,10.55
2019-05-10T13:08:00.512Z,11.22
2019-05-10T13:10:29.651Z,11.63
2019-05-10T13:12:59.215Z,12.30
2019-05-10T13:15:31.083Z,11.95
2019-05-10T13:17:58.936Z,12.25
2019-05-10T13:20:30.749Z,12.03
2019-05-10T13:22:58.588Z,12.70
2019-05-10T13:25:27.568Z,13.18
2019-05-10T13:27:56.609Z,12.73
2019-05-10T13:30:27.991Z,11.88
2019-05-10T13:32:58.653Z,12.20
2019-05-10T13:35:27.340Z,11.75
2019-05-10T13:37:56.928Z,12.78
2019-05-10T13:40:27.073Z,11.70
2019-05-10T13:42:56.164Z,12.05
2019-05-10T13:45:25.223Z,12.07
2019-05-10T13:47:54.519Z,10.55
2019-05-10T13:50:23.839Z,11.20
2019-05-10T13:52:52.816Z,12.13
2019-05-10T13:55:21.921Z,11.43
2019-05-10T13:57:54.039Z,10.68
2019-05-10T14:00:22.043Z,11.68
2019-05-10T14:02:51.116Z,11.93
2019-05-10T14:05:20.128Z,11.70
2019-05-10T14:07:52.043Z,11.53
2019-05-10T14:10:23.392Z,11.43
2019-05-10T14:12:50.591Z,10.70
2019-05-10T14:15:19.735Z,11.45
2019-05-10T14:17:48.797Z,10.28
2019-05-10T14:20:24.544Z,9.83
2019-05-10T14:22:55.875Z,9.33
2019-05-10T14:25:19.715Z,9.30
2019-05-10T14:27:48.736Z,9.20
2019-05-10T14:30:18.022Z,9.48
2019-05-10T14:32:46.993Z,9.90
2019-05-10T14:35:21.721Z,9.38
2019-05-10T14:37:48.034Z,11.15
2019-05-10T14:40:27.594Z,11.43
2019-05-10T14:42:48.215Z,11.75
2019-05-10T14:45:17.275Z,12.43
2019-05-10T14:47:50.202Z,12.60
2019-05-10T14:50:19.684Z,11.73
2019-05-10T14:52:48.112Z,11.22
2019-05-10T14:55:17.082Z,11.68
2019-05-10T14:57:46.098Z,12.43
2019-05-10T15:00:15.413Z,11.63
2019-05-10T15:02:44.720Z,11.03
2019-05-10T15:05:16.341Z,11.90
2019-05-10T15:07:44.517Z,11.30
2019-05-10T15:10:13.608Z,11.43
2019-05-10T15:12:42.627Z,11.20
2019-05-10T15:15:11.758Z,11.15
2019-05-10T15:17:40.801Z,11.73
2019-05-10T15:20:09.928Z,11.40
2019-05-10T15:22:38.920Z,10.43
2019-05-10T15:25:08.310Z,11.57
2019-05-10T15:27:37.365Z,10.98
2019-05-10T15:30:09.302Z,10.72
2019-05-10T15:32:38.473Z,11.80
2019-05-10T15:35:08.821Z,11.53
2019-05-10T15:37:40.655Z,11.03
2019-05-10T15:40:09.609Z,10.43
2019-05-10T15:42:38.700Z,9.55
2019-05-10T15:45:14.442Z,9.08
2019-05-10T15:47:50.741Z,9.27
2019-05-10T15:50:11.350Z,9.13
2019-05-10T15:52:46.262Z,9.35
2019-05-10T15:55:11.404Z,8.53
2019-05-10T15:57:40.480Z,9.20
2019-05-10T16:00:11.227Z,9.13
2019-05-10T16:02:40.307Z,8.85
2019-05-10T16:05:24.002Z,9.60
2019-05-10T16:07:40.391Z,8.95
2019-05-10T16:10:09.521Z,8.75
2019-05-10T16:12:43.175Z,8.15
2019-05-10T16:15:13.678Z,9.18
2019-05-10T16:17:40.207Z,9.85
2019-05-10T16:20:09.737Z,10.45
2019-05-10T16:22:39.106Z,9.75
2019-05-10T16:25:08.540Z,10.85
2019-05-10T16:27:41.734Z,10.70
2019-05-10T16:30:12.113Z,12.07
2019-05-10T16:32:40.097Z,11.30
2019-05-10T16:35:12.660Z,12.85
2019-05-10T16:37:40.246Z,11.53
2019-05-10T16:40:10.052Z,12.73
2019-05-10T16:42:39.404Z,12.30
2019-05-10T16:45:09.924Z,13.58
2019-05-10T16:47:38.886Z,14.10
2019-05-10T16:50:08.563Z,13.32
2019-05-10T16:52:37.584Z,14.28
2019-05-10T16:55:09.634Z,13.62
2019-05-10T16:57:39.485Z,13.20
2019-05-10T17:00:10.870Z,12.28
2019-05-10T17:02:42.198Z,12.50
2019-05-10T17:05:15.299Z,13.53
2019-05-10T17:07:42.238Z,12.98
2019-05-10T17:10:11.414Z,12.35
2019-05-10T17:12:40.402Z,12.98
2019-05-10T17:15:09.801Z,12.28
2019-05-10T17:17:39.282Z,12.60
2019-05-10T17:20:14.037Z,10.78
2019-05-10T17:22:41.030Z,12.07
2019-05-10T17:25:10.347Z,13.50
2019-05-10T17:27:39.377Z,11.80
2019-05-10T17:30:08.723Z,12.63
2019-05-10T17:32:37.769Z,14.03
2019-05-10T17:35:08.439Z,12.98
2019-05-10T17:37:37.646Z,14.63
2019-05-10T17:40:10.047Z,14.58
2019-05-10T17:42:41.154Z,14.18
2019-05-10T17:45:10.009Z,14.58
2019-05-10T17:47:39.110Z,12.30
2019-05-10T17:50:08.963Z,12.80
2019-05-10T17:52:37.936Z,13.55
2019-05-10T17:55:11.092Z,12.98
2019-05-10T17:57:39.193Z,13.50
2019-05-10T18:00:09.566Z,14.03
2019-05-10T18:02:38.549Z,14.68
2019-05-10T18:05:08.370Z,13.93
2019-05-10T18:07:37.676Z,14.30
2019-05-10T18:10:07.678Z,14.50
2019-05-10T18:12:36.725Z,14.23
2019-05-10T18:15:09.394Z,14.60
2019-05-10T18:17:38.354Z,14.73
2019-05-10T18:20:07.993Z,14.43
2019-05-10T18:22:43.263Z,14.70
2019-05-10T18:25:19.429Z,14.87
2019-05-10T18:27:39.286Z,15.25
2019-05-10T18:30:09.099Z,14.83
2019-05-10T18:32:38.118Z,15.95
2019-05-10T18:35:14.769Z,17.17
2019-05-10T18:37:38.462Z,17.57
2019-05-10T18:40:08.284Z,18.30
2019-05-10T18:42:37.277Z,18.35
2019-05-10T18:45:07.833Z,18.70
2019-05-10T18:47:36.829Z,17.73
2019-05-10T18:50:06.693Z,16.93
2019-05-10T18:52:35.762Z,17.67
2019-05-10T18:55:06.073Z,18.55
2019-05-10T18:57:35.520Z,18.50
2019-05-10T19:00:06.052Z,17.23
2019-05-10T19:02:35.253Z,17.98
2019-05-10T19:05:06.558Z,22.27
2019-05-10T19:07:35.548Z,18.17
2019-05-10T19:10:06.849Z,17.55
2019-05-10T19:12:36.428Z,17.80
2019-05-10T19:15:10.022Z,17.82
2019-05-10T19:17:40.349Z,19.00
2019-05-10T19:20:15.951Z,19.20
2019-05-10T19:22:41.656Z,19.27
2019-05-10T19:25:13.941Z,19.45
2019-05-10T19:27:44.648Z,18.92
2019-05-10T19:30:12.895Z,19.07
2019-05-10T19:32:41.858Z,20.02
2019-05-10T19:35:11.056Z,19.87
2019-05-10T19:37:40.123Z,20.02
2019-05-10T19:40:09.693Z,20.00
2019-05-10T19:42:42.958Z,19.48
2019-05-10T19:45:12.970Z,19.75
2019-05-10T19:47:40.273Z,20.40
2019-05-10T19:50:09.533Z,20.65
2019-05-10T19:52:38.496Z,20.23
2019-05-10T19:55:07.653Z,20.25
2019-05-10T19:57:38.381Z,19.67
2019-05-10T20:00:09.826Z,19.48
2019-05-10T20:02:38.880Z,18.52
2019-05-10T20:05:08.151Z,18.73
2019-05-10T20:07:45.780Z,18.17
2019-05-10T20:10:09.230Z,18.70
2019-05-10T20:12:38.501Z,19.00
2019-05-10T20:15:07.707Z,19.02
2019-05-10T20:17:37.210Z,18.27
2019-05-10T20:20:08.002Z,17.95
2019-05-10T20:22:36.976Z,19.55
2019-05-10T20:25:07.771Z,19.37
2019-05-10T20:27:36.738Z,19.57
2019-05-10T20:30:07.962Z,19.23
2019-05-10T20:32:36.936Z,19.90
2019-05-10T20:35:08.076Z,20.05
2019-05-10T20:37:37.138Z,20.95
2019-05-10T20:40:07.245Z,22.13
2019-05-10T20:42:36.333Z,23.00
2019-05-10T20:45:08.079Z,22.27
2019-05-10T20:47:36.378Z,21.35
2019-05-10T20:50:06.400Z,20.43
2019-05-10T20:52:35.379Z,19.40
2019-05-10T20:55:06.203Z,20.45
2019-05-10T20:57:35.256Z,20.55
2019-05-10T21:00:05.953Z,21.37
2019-05-10T21:02:35.032Z,21.62
2019-05-10T21:05:07.672Z,20.52
2019-05-10T21:07:36.668Z,19.17
2019-05-10T21:10:06.556Z,18.25
2019-05-10T21:12:35.602Z,18.17
2019-05-10T21:15:06.760Z,18.27
2019-05-10T21:17:35.742Z,17.92
2019-05-10T21:20:07.237Z,17.90
2019-05-10T21:22:36.222Z,16.20
2019-05-10T21:25:07.683Z,17.45
2019-05-10T21:27:36.684Z,17.45
2019-05-10T21:30:06.859Z,17.07
2019-05-10T21:32:35.869Z,16.30
2019-05-10T21:35:05.265Z,15.72
2019-05-10T21:37:34.305Z,16.25
2019-05-10T21:40:04.064Z,20.82
2019-05-10T21:42:33.142Z,19.25
2019-05-10T21:45:02.220Z,17.23
2019-05-10T21:47:31.328Z,18.27
2019-05-10T21:50:00.388Z,17.52
2019-05-10T21:52:29.448Z,18.60
2019-05-10T21:54:58.428Z,17.85
2019-05-10T21:57:27.689Z,18.62
2019-05-10T21:59:56.651Z,18.15
2019-05-10T22:02:25.755Z,18.48
2019-05-10T22:04:55.292Z,17.98
2019-05-10T22:07:24.348Z,16.93
2019-05-10T22:09:53.415Z,18.25
2019-05-10T22:12:22.389Z,16.93
2019-05-10T22:14:51.357Z,17.52
2019-05-10T22:17:20.679Z,15.95
2019-05-10T22:19:49.706Z,17.42
2019-05-10T22:22:18.711Z,16.85
2019-05-10T22:24:47.674Z,16.10
2019-05-10T22:27:16.653Z,16.40
2019-05-10T22:29:45.899Z,15.90
2019-05-10T22:32:14.884Z,16.95
2019-05-10T22:34:43.929Z,17.80
2019-05-10T22:37:12.989Z,17.15
2019-05-10T22:39:42.041Z,17.77
2019-05-10T22:42:11.009Z,17.12
2019-05-10T22:44:39.978Z,17.42
2019-05-10T22:47:09.226Z,18.92
2019-05-10T22:49:38.299Z,17.70
2019-05-10T22:52:07.301Z,17.57
2019-05-10T22:54:36.257Z,17.92
2019-05-10T22:57:05.499Z,18.60
2019-05-10T22:59:34.751Z,17.25
2019-05-10T23:02:03.713Z,17.50
2019-05-10T23:04:32.721Z,17.77
2019-05-10T23:07:01.789Z,17.67
2019-05-10T23:09:30.731Z,18.30
2019-05-10T23:11:59.709Z,16.87
2019-05-10T23:14:28.695Z,17.02
2019-05-10T23:16:57.748Z,16.97
2019-05-10T23:19:26.759Z,17.07
2019-05-10T23:21:55.823Z,17.57
2019-05-10T23:24:26.453Z,17.27
2019-05-10T23:26:55.417Z,16.57
2019-05-10T23:29:24.417Z,18.12
2019-05-10T23:31:53.456Z,17.60
2019-05-10T23:34:22.495Z,17.77
2019-05-10T23:36:51.475Z,17.30
2019-05-10T23:39:20.461Z,18.25
2019-05-10T23:41:49.459Z,18.00
2019-05-10T23:44:18.507Z,18.52
2019-05-10T23:46:47.465Z,17.40
2019-05-10T23:49:16.465Z,18.57
2019-05-10T23:51:45.763Z,18.98
2019-05-10T23:54:14.763Z,18.32
2019-05-10T23:56:43.801Z,19.37
2019-05-10T23:59:12.847Z,18.62
